Shorkot Weather



Shorkot's Current Weather

Temprature 31.65o clear sky

clear sky

Rain: 0 %

Min Temprature31.65o
Max Temprature31.65o
Humidity32
Wind Speed2.96 m/h
Sun Rise05:42:31
Sun Set18:46:49
Current Time: 23-Aug-2019 05:36:17
Lat/Lon: 30.83, 72.08




Shorkot's Geo Location



Shorkot's Weather Forecast

Time Overall Temp Min Temp Max Temp Humidity Wind Speed Rain
23-Aug-2019 (Fri)
08:00:00 clear sky 34.960 34.957 34.960 26 3.38 m/h 0 %
11:00:00 clear sky 40.750 40.750 40.750 19 0.67 m/h 0 %
14:00:00 clear sky 42.730 42.730 42.731 15 2.25 m/h 0 %
17:00:00 clear sky 42.710 42.710 42.711 14 3.81 m/h 0 %
20:00:00 clear sky 38.750 38.750 38.750 18 0.92 m/h 0 %
23:00:00 clear sky 35.642 35.642 35.642 24 3.64 m/h 0 %
24-Aug-2019 (Sat)
02:00:00 clear sky 34.531 34.531 34.531 26 3.48 m/h 0 %
05:00:00 clear sky 32.855 32.855 32.855 31 2.69 m/h 0 %
08:00:00 clear sky 36.127 36.127 36.127 27 4.83 m/h 0 %
11:00:00 clear sky 41.669 41.669 41.669 19 4.52 m/h 0 %
14:00:00 clear sky 44.269 44.269 44.269 14 4.06 m/h 0 %
17:00:00 clear sky 43.723 43.723 43.723 13 3.11 m/h 0 %
20:00:00 clear sky 38.550 38.550 38.550 19 4.07 m/h 0 %
23:00:00 clear sky 36.669 36.669 36.669 23 5.67 m/h 0 %
25-Aug-2019 (Sun)
02:00:00 clear sky 35.231 35.231 35.231 25 6.16 m/h 0 %
05:00:00 clear sky 34.257 34.257 34.257 23 6.64 m/h 0 %
08:00:00 clear sky 37.014 37.014 37.014 21 3.57 m/h 0 %
11:00:00 clear sky 42.616 42.616 42.616 16 5.09 m/h 0 %
14:00:00 clear sky 44.950 44.950 44.950 13 5.38 m/h 0 %
17:00:00 clear sky 44.350 44.350 44.350 12 2.86 m/h 0 %
20:00:00 clear sky 39.581 39.581 39.581 16 2.87 m/h 0 %
23:00:00 clear sky 36.611 36.611 36.611 23 4.82 m/h 0 %
26-Aug-2019 (Mon)
02:00:00 scattered clouds 34.465 34.465 34.465 28 1.69 m/h 0 %
05:00:00 scattered clouds 32.250 32.250 32.250 32 4.77 m/h 0 %
08:00:00 clear sky 35.367 35.367 35.367 28 3.95 m/h 0 %
11:00:00 clear sky 41.672 41.672 41.672 19 3.74 m/h 0 %
14:00:00 few clouds 44.684 44.684 44.684 14 2.78 m/h 0 %
17:00:00 broken clouds 44.020 44.020 44.020 14 3.95 m/h 0 %
20:00:00 overcast clouds 39.072 39.072 39.072 20 2.48 m/h 0 %
23:00:00 broken clouds 36.314 36.314 36.314 26 4.32 m/h 0 %
27-Aug-2019 (Tue)
02:00:00 few clouds 33.416 33.416 33.416 42 4.28 m/h 0 %
05:00:00 broken clouds 32.650 32.650 32.650 47 4.79 m/h 0 %
08:00:00 overcast clouds 35.435 35.435 35.435 41 4.7 m/h 0 %
11:00:00 overcast clouds 40.836 40.836 40.836 27 3.37 m/h 0 %
14:00:00 broken clouds 43.036 43.036 43.036 21 3.66 m/h 0 %
17:00:00 broken clouds 41.465 41.465 41.465 24 4.34 m/h 0 %
20:00:00 overcast clouds 37.550 37.550 37.550 31 2.66 m/h 0 %
23:00:00 broken clouds 35.350 35.350 35.350 36 3.04 m/h 0 %
28-Aug-2019 (Wed)
02:00:00 clear sky 33.857 33.857 33.857 41 2.94 m/h 0 %
05:00:00 clear sky 32.672 32.672 32.672 46 2.18 m/h 0 %

Famous Cities (61)